createdAt,value
2023-03-25T00:10:39.607Z,55.88
2023-03-25T00:25:44.968Z,60.05
2023-03-25T00:40:48.692Z,53.14
2023-03-25T00:55:51.350Z,56.95
2023-03-25T01:10:54.484Z,60.17
2023-03-25T01:25:57.393Z,53.14
2023-03-25T01:40:59.958Z,57.09
2023-03-25T01:56:06.819Z,53.42
2023-03-25T02:11:10.776Z,57.64
2023-03-25T02:26:19.173Z,54.44
2023-03-25T02:41:56.502Z,58.22
2023-03-25T02:57:01.020Z,54.02
2023-03-25T03:12:22.961Z,58.71
2023-03-25T03:27:34.131Z,53.76
2023-03-25T03:42:45.257Z,58.90
2023-03-25T03:58:02.583Z,54.47
2023-03-25T04:13:10.413Z,59.30
2023-03-25T04:28:13.706Z,53.80
2023-03-25T04:43:17.662Z,58.91
2023-03-25T04:58:20.570Z,54.18
2023-03-25T05:13:23.912Z,59.47
2023-03-25T05:28:26.851Z,54.60
2023-03-25T05:43:35.710Z,55.77
2023-03-25T05:58:38.622Z,51.15
2023-03-25T06:13:42.341Z,48.07
2023-03-25T06:28:46.281Z,42.97
2023-03-25T06:43:49.421Z,41.75
2023-03-25T06:58:52.080Z,44.93
2023-03-25T07:13:55.271Z,47.73
2023-03-25T07:28:58.153Z,52.08
2023-03-25T07:44:01.014Z,54.79
2023-03-25T07:59:04.764Z,57.39
2023-03-25T08:14:07.874Z,57.65
2023-03-25T08:29:11.658Z,57.53
2023-03-25T08:44:14.765Z,56.05
2023-03-25T08:59:18.099Z,52.67
2023-03-25T09:14:20.975Z,52.00
2023-03-25T09:29:23.517Z,51.81
2023-03-25T09:44:31.110Z,52.61
2023-03-25T09:59:41.965Z,52.98
2023-03-25T10:15:04.066Z,49.84
2023-03-25T10:30:09.874Z,48.41
2023-03-25T10:45:15.699Z,48.53
2023-03-25T11:00:26.396Z,46.25
2023-03-25T11:15:35.227Z,43.27
2023-03-25T11:30:51.622Z,41.54
2023-03-25T11:45:54.905Z,40.87
2023-03-25T12:01:03.977Z,43.59
2023-03-25T12:16:41.481Z,41.08
2023-03-25T12:32:09.067Z,40.98
2023-03-25T12:47:24.917Z,46.67
2023-03-25T13:02:54.418Z,56.05
2023-03-25T13:18:05.841Z,58.89
2023-03-25T13:33:16.225Z,54.35
2023-03-25T13:48:31.614Z,52.37
2023-03-25T14:04:15.840Z,52.34
2023-03-25T14:19:26.861Z,54.93
2023-03-25T14:34:29.846Z,55.27
2023-03-25T14:50:01.272Z,53.36
2023-03-25T15:05:15.584Z,53.16
2023-03-25T15:20:24.113Z,53.68
2023-03-25T15:35:33.004Z,55.37
2023-03-25T15:50:54.826Z,58.86
2023-03-25T16:06:03.111Z,58.41
2023-03-25T16:21:05.948Z,56.82
2023-03-25T16:36:11.682Z,53.00
2023-03-25T16:51:37.817Z,55.48
2023-03-25T17:06:43.380Z,57.92
2023-03-25T17:22:18.694Z,54.87
2023-03-25T17:37:25.137Z,58.22
2023-03-25T17:52:29.546Z,54.29
2023-03-25T18:07:34.742Z,58.16
2023-03-25T18:22:37.348Z,53.29
2023-03-25T18:37:41.668Z,57.86
2023-03-25T18:52:45.579Z,56.98
2023-03-25T19:07:49.408Z,55.61
2023-03-25T19:22:52.898Z,55.45
2023-03-25T19:37:57.100Z,56.67
2023-03-25T19:53:01.968Z,58.47
2023-03-25T20:08:05.071Z,54.03
2023-03-25T20:23:08.936Z,58.43
2023-03-25T20:38:11.672Z,58.58
2023-03-25T20:53:14.514Z,55.11
2023-03-25T21:08:17.020Z,59.24
2023-03-25T21:23:20.664Z,62.03
2023-03-25T21:38:29.133Z,56.21
2023-03-25T21:53:32.247Z,56.05
2023-03-25T22:08:37.814Z,58.96
2023-03-25T22:23:41.317Z,59.98
2023-03-25T22:38:48.417Z,59.20
2023-03-25T22:53:51.212Z,53.57
2023-03-25T23:08:57.747Z,56.26
2023-03-25T23:24:07.819Z,58.77
2023-03-25T23:39:15.373Z,58.60
2023-03-25T23:54:18.355Z,54.57
